Time;durP1;ratioP1;P1;durP2;ratioP2;P2;SDS_P1;SDS_P2;PMS_P1;PMS_P2;Temp;Humidity;BMP_temperature;BMP_pressure;BME280_temperature;BME280_humidity;BME280_pressure;Samples;Min_cycle;Max_cycle;Signal;HPM_P1;HPM_P2
2020/12/27 00:02:18;;;;;;;4.20;0.50;;;;;;;8.50;87.42;97190.81;4427141;32;20402;-75
2020/12/27 00:04:44;;;;;;;4.35;0.40;;;;;;;8.46;87.56;97179.13;4424498;32;20077;-77
2020/12/27 00:07:12;;;;;;;5.35;0.55;;;;;;;8.45;88.42;97172.00;4423156;32;20419;-76
2020/12/27 00:09:39;;;;;;;1.20;0.50;;;;;;;8.45;88.69;97172.00;4425801;32;20040;-77
2020/12/27 00:12:05;;;;;;;1.73;0.30;;;;;;;8.39;88.49;97154.44;4423658;32;20095;-78
2020/12/27 00:14:31;;;;;;;5.35;0.62;;;;;;;8.39;88.92;97123.62;4427289;32;20057;-76
2020/12/27 00:17:06;;;;;;;3.78;0.40;;;;;;;8.37;88.53;97119.81;4422225;32;20061;-76
2020/12/27 00:19:32;;;;;;;2.33;0.30;;;;;;;8.37;88.13;97126.16;4409305;32;20451;-77
2020/12/27 00:21:57;;;;;;;1.27;0.20;;;;;;;8.28;88.07;97101.22;4423984;32;20350;-77
2020/12/27 00:24:23;;;;;;;2.03;0.20;;;;;;;8.26;88.36;97089.78;4426064;32;20053;-78
2020/12/27 00:26:50;;;;;;;5.15;0.37;;;;;;;8.18;87.16;97078.28;4421578;32;20034;-77
2020/12/27 00:29:16;;;;;;;1.30;0.20;;;;;;;8.24;87.81;97058.69;4421495;32;20340;-76
2020/12/27 00:31:42;;;;;;;1.05;0.10;;;;;;;8.09;87.49;97069.38;4424071;32;20064;-76
2020/12/27 00:34:07;;;;;;;2.20;0.20;;;;;;;8.17;87.85;97031.94;4436345;27;20100;-76
2020/12/27 00:36:33;;;;;;;1.10;0.20;;;;;;;8.10;87.88;97029.66;4421251;32;20107;-74
2020/12/27 00:38:59;;;;;;;1.80;0.20;;;;;;;8.10;87.77;97023.28;4424340;32;20029;-73
2020/12/27 00:41:25;;;;;;;3.78;0.25;;;;;;;8.10;87.73;97014.91;4422555;32;20045;-73
2020/12/27 00:43:53;;;;;;;0.95;0.30;;;;;;;8.13;88.20;96985.88;4422421;32;20065;-73
2020/12/27 00:46:20;;;;;;;4.43;0.30;;;;;;;8.15;88.08;96966.53;4427490;32;20119;-74
2020/12/27 00:48:46;;;;;;;2.75;0.20;;;;;;;8.13;88.21;96963.47;4422141;32;20081;-74
2020/12/27 00:51:11;;;;;;;3.78;0.20;;;;;;;8.16;88.20;96946.44;4424107;32;20501;-73
2020/12/27 00:53:37;;;;;;;0.88;0.30;;;;;;;8.18;88.79;96929.13;4423264;32;20045;-74
2020/12/27 00:56:03;;;;;;;1.85;0.28;;;;;;;8.16;88.16;96909.25;4424845;32;20061;-74
2020/12/27 00:58:31;;;;;;;4.93;0.50;;;;;;;8.19;88.62;96899.81;4423839;32;20086;-73
2020/12/27 01:00:57;;;;;;;3.70;0.30;;;;;;;8.24;89.19;96879.47;4423340;32;20092;-74
2020/12/27 01:03:23;;;;;;;3.20;0.30;;;;;;;8.30;89.06;96860.63;4421208;32;20140;-75
2020/12/27 01:05:49;;;;;;;4.45;0.40;;;;;;;8.30;89.04;96877.41;4426650;32;20077;-75
2020/12/27 01:08:16;;;;;;;1.52;0.20;;;;;;;8.34;88.98;96840.75;4425185;32;20112;-75
2020/12/27 01:10:42;;;;;;;1.33;0.10;;;;;;;8.37;89.49;96836.91;4427519;32;20046;-74
2020/12/27 01:13:08;;;;;;;0.65;0.28;;;;;;;8.45;89.36;96821.84;4421933;32;20477;-74
2020/12/27 01:15:33;;;;;;;1.02;0.20;;;;;;;8.52;89.57;96806.50;4422548;32;20033;-74
2020/12/27 01:17:59;;;;;;;2.95;0.20;;;;;;;8.49;88.60;96799.91;4421366;32;20117;-74
2020/12/27 01:20:24;;;;;;;2.72;0.43;;;;;;;8.56;88.70;96796.53;4425138;32;20490;-74
2020/12/27 01:22:50;;;;;;;1.90;0.40;;;;;;;8.64;88.78;96779.94;4425902;32;20480;-75
2020/12/27 01:25:16;;;;;;;4.43;0.20;;;;;;;8.62;88.52;96765.69;4424916;32;20045;-75
2020/12/27 01:27:42;;;;;;;1.75;0.40;;;;;;;8.61;89.25;96752.94;4428456;32;21249;-75
2020/12/27 01:30:07;;;;;;;3.62;0.35;;;;;;;8.67;88.73;96748.06;4421353;32;20092;-75
2020/12/27 01:32:33;;;;;;;2.05;0.30;;;;;;;8.66;88.87;96740.94;4419169;32;20125;-75
2020/12/27 01:34:59;;;;;;;2.83;0.40;;;;;;;8.68;88.79;96735.59;4411782;32;20050;-75
2020/12/27 01:37:24;;;;;;;2.92;0.30;;;;;;;8.66;88.77;96729.75;4413907;32;20458;-74
2020/12/27 01:39:50;;;;;;;4.07;0.50;;;;;;;8.64;89.00;96718.28;4410556;32;20068;-74
2020/12/27 01:42:16;;;;;;;4.80;0.40;;;;;;;8.64;88.78;96688.22;4410688;32;20370;-74
2020/12/27 01:44:41;;;;;;;3.17;0.30;;;;;;;8.63;89.25;96677.53;4413082;32;20042;-74
2020/12/27 01:47:16;;;;;;;2.37;0.13;;;;;;;8.60;89.78;96668.16;4410460;32;20105;-74
2020/12/27 01:49:44;;;;;;;2.50;0.50;;;;;;;8.61;89.59;96666.09;4406711;32;20445;-74
2020/12/27 01:52:10;;;;;;;5.03;0.32;;;;;;;8.59;89.91;96654.66;4411071;32;20029;-75
2020/12/27 01:54:37;;;;;;;1.62;0.30;;;;;;;8.67;90.29;96656.34;4409467;32;20171;-74
2020/12/27 01:57:11;;;;;;;1.70;0.20;;;;;;;8.68;90.36;96638.25;4410587;32;20123;-74
2020/12/27 01:59:36;;;;;;;4.90;0.30;;;;;;;8.67;89.84;96624.78;4410830;32;20410;-74
2020/12/27 02:02:02;;;;;;;0.93;0.30;;;;;;;8.60;89.58;96625.34;4409324;32;20103;-74
2020/12/27 02:04:28;;;;;;;1.48;0.20;;;;;;;8.63;89.89;96611.06;4412017;32;20598;-74
2020/12/27 02:06:55;;;;;;;4.57;0.20;;;;;;;8.66;89.21;96596.00;4414505;32;20037;-75
2020/12/27 02:09:21;;;;;;;2.25;0.30;;;;;;;8.72;89.04;96588.31;4411124;32;20046;-74
2020/12/27 02:11:46;;;;;;;1.75;0.25;;;;;;;8.67;88.37;96574.34;4412533;32;20102;-74
2020/12/27 02:14:12;;;;;;;2.55;0.50;;;;;;;8.66;88.91;96553.97;4409880;32;20533;-74
2020/12/27 02:16:38;;;;;;;2.47;0.20;;;;;;;8.69;89.21;96560.56;4411099;32;20540;-74
2020/12/27 02:19:12;;;;;;;1.50;0.40;;;;;;;8.69;89.58;96558.53;4407464;32;20406;-74
2020/12/27 02:21:39;;;;;;;3.35;0.20;;;;;;;8.68;89.67;96550.66;4400834;32;20502;-74
2020/12/27 02:24:04;;;;;;;2.35;0.30;;;;;;;8.62;89.77;96538.75;4414145;32;20082;-74
2020/12/27 02:26:30;;;;;;;4.80;0.30;;;;;;;8.66;89.79;96530.78;4409738;32;20119;-75
2020/12/27 02:28:57;;;;;;;2.00;0.20;;;;;;;8.66;89.38;96520.34;4411575;32;20092;-74
2020/12/27 02:31:24;;;;;;;1.00;0.30;;;;;;;8.68;90.13;96497.41;4412083;32;20085;-73
2020/12/27 02:33:50;;;;;;;3.67;0.70;;;;;;;8.69;89.91;96488.47;4413421;32;20432;-73
2020/12/27 02:36:15;;;;;;;4.82;0.60;;;;;;;8.72;90.27;96481.81;4417819;32;20090;-75
2020/12/27 02:38:41;;;;;;;1.42;0.62;;;;;;;8.68;89.72;96481.34;4415206;32;20800;-74
2020/12/27 02:41:23;;;;;;;4.85;0.60;;;;;;;8.69;90.24;96470.91;4417322;32;20462;-73
2020/12/27 02:43:49;;;;;;;12.45;0.88;;;;;;;8.78;90.30;96471.31;4417948;32;20130;-74
2020/12/27 02:46:24;;;;;;;2.72;0.68;;;;;;;8.81;90.29;96475.09;4416351;32;20046;-73
2020/12/27 02:48:51;;;;;;;3.70;0.50;;;;;;;8.79;89.46;96474.84;4415879;32;20520;-74
2020/12/27 02:51:18;;;;;;;6.50;0.68;;;;;;;8.78;90.22;96499.31;4413451;32;20045;-73
2020/12/27 02:53:48;;;;;;;2.50;0.43;;;;;;;8.74;88.98;96521.25;4413294;32;20418;-74
2020/12/27 02:58:58;;;;;;;1.70;0.20;;;;;;;9.12;84.97;96511.63;3984645;32;15075384;-74
2020/12/27 03:01:24;;;;;;;1.73;0.45;;;;;;;9.12;84.97;96511.63;4441042;32;20066;-74
2020/12/27 03:03:50;;;;;;;0.68;0.13;;;;;;;8.73;83.82;96516.19;4443212;32;20085;-74
2020/12/27 03:06:18;;;;;;;2.35;0.45;;;;;;;8.67;83.21;96498.69;4445143;32;20108;-73
2020/12/27 03:08:45;;;;;;;2.47;0.20;;;;;;;8.62;82.47;96499.53;4442648;32;20448;-74
2020/12/27 03:11:11;;;;;;;1.87;0.30;;;;;;;8.58;81.27;96497.00;4439361;32;20552;-73
2020/12/27 03:13:37;;;;;;;1.95;0.20;;;;;;;8.52;83.20;96481.53;4443538;32;20370;-72
2020/12/27 03:16:05;;;;;;;2.12;0.32;;;;;;;8.39;83.29;96475.84;4442513;32;20018;-73
2020/12/27 03:18:31;;;;;;;1.00;0.20;;;;;;;8.22;82.84;96473.22;4442541;32;20406;-74
2020/12/27 03:20:57;;;;;;;1.12;0.15;;;;;;;8.12;82.67;96452.44;4443944;32;20459;-74
2020/12/27 03:23:24;;;;;;;1.85;0.37;;;;;;;8.06;83.00;96455.31;4443220;32;20440;-74
2020/12/27 03:25:49;;;;;;;1.52;0.30;;;;;;;8.03;82.09;96466.78;4438324;32;20034;-74
2020/12/27 03:28:16;;;;;;;0.62;0.25;;;;;;;7.99;82.17;96460.72;4432391;32;20137;-74
2020/12/27 03:30:42;;;;;;;2.03;0.20;;;;;;;7.97;82.13;96449.28;4442144;32;20446;-74
2020/12/27 03:33:08;;;;;;;2.37;0.25;;;;;;;8.04;82.32;96443.88;4439491;32;20077;-74
2020/12/27 03:35:34;;;;;;;1.90;0.10;;;;;;;8.02;82.63;96437.28;4426009;32;20072;-74
2020/12/27 03:37:59;;;;;;;3.97;0.57;;;;;;;7.99;82.28;96432.72;4427639;32;20144;-74
2020/12/27 03:40:25;;;;;;;6.75;1.08;;;;;;;7.95;81.08;96440.66;4425084;32;20070;-74
2020/12/27 03:42:51;;;;;;;2.60;0.40;;;;;;;8.03;81.17;96427.59;4425121;32;20046;-74
2020/12/27 03:45:16;;;;;;;1.05;0.52;;;;;;;7.94;81.89;96419.53;4427225;32;20066;-74
2020/12/27 03:47:42;;;;;;;3.47;0.47;;;;;;;7.91;81.87;96417.78;4422180;32;20358;-74
2020/12/27 03:50:08;;;;;;;3.75;0.40;;;;;;;7.99;81.15;96408.31;4426716;32;20021;-74
2020/12/27 03:52:33;;;;;;;3.53;0.52;;;;;;;7.98;81.85;96398.38;4424738;32;20099;-74
2020/12/27 03:54:59;;;;;;;3.70;0.82;;;;;;;8.02;82.11;96392.50;4425437;32;20108;-74
2020/12/27 03:57:25;;;;;;;4.50;0.90;;;;;;;8.00;81.29;96389.47;4425311;32;20045;-74
2020/12/27 03:59:51;;;;;;;2.50;0.30;;;;;;;8.00;81.78;96390.22;4425396;32;20041;-74
2020/12/27 04:02:16;;;;;;;1.75;0.22;;;;;;;8.03;81.65;96372.37;4427494;32;20034;-74
2020/12/27 04:04:42;;;;;;;3.05;0.20;;;;;;;8.04;81.00;96373.16;4424375;32;20085;-74
2020/12/27 04:07:08;;;;;;;3.00;0.62;;;;;;;8.04;81.62;96365.50;4425554;32;20022;-74
2020/12/27 04:09:34;;;;;;;2.17;0.22;;;;;;;8.02;82.25;96342.87;4417975;32;20449;-74
2020/12/27 04:11:59;;;;;;;2.30;0.37;;;;;;;8.10;81.81;96337.44;4416485;32;20054;-74
2020/12/27 04:14:26;;;;;;;1.35;0.20;;;;;;;8.13;82.11;96325.16;4416903;32;20451;-74
2020/12/27 04:16:52;;;;;;;2.70;0.28;;;;;;;8.13;81.90;96328.75;4416164;32;20060;-74
2020/12/27 04:19:17;;;;;;;3.37;0.50;;;;;;;8.11;81.84;96330.56;4415508;32;20141;-74
2020/12/27 04:21:44;;;;;;;0.40;0.20;;;;;;;7.99;81.94;96324.34;4414522;32;20504;-75
2020/12/27 04:24:10;;;;;;;2.45;0.28;;;;;;;8.02;81.70;96328.91;4417005;32;20155;-75
2020/12/27 04:26:36;;;;;;;1.92;0.40;;;;;;;7.96;81.42;96319.03;4414796;32;20089;-74
2020/12/27 04:29:02;;;;;;;6.90;0.60;;;;;;;7.94;82.21;96310.41;4414517;32;20046;-73
2020/12/27 04:31:27;;;;;;;5.95;1.17;;;;;;;7.73;80.63;96326.94;4412234;32;20019;-74
2020/12/27 04:33:53;;;;;;;3.87;0.90;;;;;;;7.82;81.72;96306.22;4414154;32;20419;-74
2020/12/27 04:36:20;;;;;;;3.05;0.90;;;;;;;7.79;81.50;96313.63;4414447;32;20101;-74
2020/12/27 04:38:46;;;;;;;4.50;1.40;;;;;;;7.79;80.69;96312.87;4412982;32;20415;-74
2020/12/27 04:41:14;;;;;;;2.58;1.30;;;;;;;7.72;81.86;96296.69;4416294;32;20042;-74
2020/12/27 04:43:41;;;;;;;3.67;1.50;;;;;;;7.74;81.44;96311.66;4415650;32;20500;-72
2020/12/27 04:46:10;;;;;;;1.92;0.80;;;;;;;7.70;81.35;96310.47;4413673;32;20046;-72
2020/12/27 04:48:38;;;;;;;3.55;1.02;;;;;;;7.68;80.55;96319.37;4414006;32;20041;-72
2020/12/27 04:51:05;;;;;;;3.50;0.88;;;;;;;7.60;81.42;96334.44;4416129;32;20078;-74
2020/12/27 04:53:33;;;;;;;3.17;0.75;;;;;;;7.55;81.80;96354.88;4414091;32;20089;-74
2020/12/27 04:56:01;;;;;;;0.82;0.40;;;;;;;7.39;81.42;96350.16;4415003;32;20081;-74
2020/12/27 04:58:28;;;;;;;1.33;0.60;;;;;;;7.41;81.56;96333.63;4415851;32;20054;-74
2020/12/27 05:00:55;;;;;;;1.92;0.70;;;;;;;7.27;80.89;96340.41;4415743;32;20074;-71
2020/12/27 05:03:20;;;;;;;1.12;0.60;;;;;;;7.28;82.20;96331.47;4412956;32;20096;-74
2020/12/27 05:05:48;;;;;;;2.47;1.35;;;;;;;7.16;81.98;96329.31;4415971;32;20508;-73
2020/12/27 05:08:14;;;;;;;2.53;1.08;;;;;;;7.07;82.88;96330.41;4412477;32;20049;-73
2020/12/27 05:10:41;;;;;;;2.30;1.00;;;;;;;7.12;82.88;96346.34;4416155;32;20480;-73
2020/12/27 05:13:09;;;;;;;3.15;0.90;;;;;;;7.08;83.17;96336.72;4414601;32;20022;-72
2020/12/27 05:15:36;;;;;;;3.83;1.10;;;;;;;6.93;82.88;96334.31;4413863;32;20026;-72
2020/12/27 05:18:03;;;;;;;3.62;1.10;;;;;;;6.93;82.80;96322.41;4412014;32;20064;-73
2020/12/27 05:20:31;;;;;;;7.30;1.73;;;;;;;6.77;83.01;96331.66;4411875;32;20422;-72
2020/12/27 05:23:01;;;;;;;6.93;1.70;;;;;;;6.81;83.09;96323.75;4416513;32;20034;-73
2020/12/27 05:25:29;;;;;;;4.07;1.75;;;;;;;6.87;83.24;96347.56;4412527;32;20049;-73
2020/12/27 05:28:00;;;;;;;5.05;1.23;;;;;;;6.95;83.26;96384.84;4412044;32;20106;-72
2020/12/27 05:30:27;;;;;;;1.27;0.35;;;;;;;6.92;83.34;96404.69;4413778;32;20048;-72
2020/12/27 05:32:54;;;;;;;1.30;0.10;;;;;;;6.43;79.75;96386.97;4414388;32;20018;-72
2020/12/27 05:35:21;;;;;;;1.73;0.10;;;;;;;6.19;79.60;96392.41;4414559;32;20095;-72
2020/12/27 05:37:48;;;;;;;1.15;0.17;;;;;;;5.95;80.88;96384.62;4410510;32;20122;-72
2020/12/27 05:40:14;;;;;;;1.75;0.20;;;;;;;5.80;80.62;96375.03;4414726;32;20056;-72
2020/12/27 05:42:40;;;;;;;1.98;0.13;;;;;;;5.80;82.56;96375.78;4416535;32;20109;-72
2020/12/27 05:45:22;;;;;;;1.48;0.32;;;;;;;5.63;81.46;96372.28;4415743;32;20100;-72
2020/12/27 05:47:48;;;;;;;1.65;0.25;;;;;;;5.67;81.96;96367.19;4413087;32;20078;-72
2020/12/27 05:50:15;;;;;;;2.00;0.30;;;;;;;5.61;83.30;96366.44;4411690;32;20038;-72
2020/12/27 05:52:46;;;;;;;4.12;0.37;;;;;;;5.64;83.66;96364.66;4416176;32;20041;-72
2020/12/27 05:55:17;;;;;;;5.93;0.50;;;;;;;5.62;83.26;96362.38;4414033;32;20116;-72
2020/12/27 05:57:48;;;;;;;11.10;1.00;;;;;;;5.65;83.07;96347.41;4412595;32;20073;-72
2020/12/27 06:00:18;;;;;;;1.95;0.40;;;;;;;5.59;82.41;96349.47;4413332;32;20092;-73
2020/12/27 06:02:43;;;;;;;7.97;0.70;;;;;;;5.59;82.19;96343.16;4413408;32;20049;-72
2020/12/27 06:05:12;;;;;;;4.20;0.50;;;;;;;5.63;82.49;96338.81;4415032;32;20022;-72
2020/12/27 06:07:44;;;;;;;7.97;0.60;;;;;;;5.72;82.54;96337.78;4414518;32;20064;-72
2020/12/27 06:15:41;;;;;;;5.75;1.40;;;;;;;6.14;80.03;96376.47;3987790;32;15021547;-73
2020/12/27 06:20:45;;;;;;;3.95;1.02;;;;;;;5.95;81.41;96372.69;3987905;32;15022269;-71
2020/12/27 06:23:11;;;;;;;9.75;1.42;;;;;;;5.95;81.41;96372.69;4438620;32;20365;-72
2020/12/27 06:25:39;;;;;;;5.32;0.73;;;;;;;5.51;82.55;96358.88;4439417;32;20082;-73
2020/12/27 06:28:06;;;;;;;3.00;0.60;;;;;;;5.36;82.08;96348.00;4440593;32;20422;-73
2020/12/27 06:30:35;;;;;;;3.15;0.22;;;;;;;5.38;82.17;96359.41;4440079;32;20057;-73
2020/12/27 06:33:22;;;;;;;1.87;0.32;;;;;;;5.26;82.27;96363.47;4434933;32;20074;-74
2020/12/27 06:35:48;;;;;;;2.50;0.25;;;;;;;5.42;82.40;96350.78;4423696;32;20101;-74
2020/12/27 06:41:06;;;;;;;5.10;0.50;;;;;;;5.95;80.92;96353.16;3962495;31;15712619;-71
2020/12/27 06:43:41;;;;;;;5.62;0.50;;;;;;;5.95;80.92;96353.16;4445976;32;20430;-71
2020/12/27 06:46:26;;;;;;;;;;;;;;;5.56;82.44;96333.75;4447010;32;20077;-71
2020/12/27 06:51:45;;;;;;;6.55;0.70;;;;;;;5.97;77.54;96342.28;3986351;32;15021599;-74
2020/12/27 06:54:12;;;;;;;8.57;1.00;;;;;;;5.97;77.54;96342.28;4439309;32;20064;-74
2020/12/27 06:56:40;;;;;;;17.12;1.05;;;;;;;5.61;79.42;96332.22;4443218;32;20399;-74
2020/12/27 06:59:06;;;;;;;10.07;0.82;;;;;;;5.55;78.27;96335.03;4436543;32;20074;-74
2020/12/27 07:01:33;;;;;;;7.22;1.10;;;;;;;5.50;78.39;96327.44;4443960;32;20092;-74
2020/12/27 07:04:15;;;;;;;11.90;1.20;;;;;;;5.52;78.25;96327.69;4441540;32;20037;-73
2020/12/27 07:06:43;;;;;;;8.30;0.98;;;;;;;5.54;77.78;96333.53;4435994;32;20037;-73
2020/12/27 07:09:09;;;;;;;2.22;0.75;;;;;;;5.50;78.20;96346.22;4435602;32;20365;-73
2020/12/27 07:11:35;;;;;;;7.37;0.70;;;;;;;5.50;77.24;96332.28;4437992;32;20041;-73
2020/12/27 07:14:02;;;;;;;9.20;0.93;;;;;;;5.46;78.70;96326.94;4438173;32;20013;-73
2020/12/27 07:16:54;;;;;;;8.98;0.90;;;;;;;5.39;78.51;96323.94;4438556;32;20403;-73
2020/12/27 07:19:20;;;;;;;6.75;0.90;;;;;;;5.42;77.07;96323.66;4434729;32;20026;-73
2020/12/27 07:21:47;;;;;;;5.85;0.88;;;;;;;5.31;76.74;96320.91;4442111;32;20060;-73
2020/12/27 07:26:49;;;;;;;6.03;0.73;;;;;;;5.35;76.15;96321.41;4001938;31;15016376;-72
2020/12/27 07:29:18;;;;;;;3.60;0.50;;;;;;;5.21;76.06;96311.28;4450865;32;20427;-72
2020/12/27 07:31:45;;;;;;;3.55;0.98;;;;;;;5.22;76.34;96287.72;4446778;32;20085;-73
2020/12/27 07:34:13;;;;;;;4.47;0.90;;;;;;;5.11;76.85;96278.66;4445107;32;20393;-72
2020/12/27 07:36:39;;;;;;;3.92;0.85;;;;;;;5.05;76.69;96289.81;4441293;32;20084;-72
2020/12/27 07:39:07;;;;;;;8.93;1.08;;;;;;;5.00;77.34;96290.56;4441942;32;20476;-72
2020/12/27 07:41:36;;;;;;;8.95;1.65;;;;;;;4.98;77.84;96298.69;4444099;32;20091;-72
2020/12/27 07:44:09;;;;;;;7.47;1.33;;;;;;;4.98;78.45;96312.63;4443483;32;20077;-73
2020/12/27 07:46:34;;;;;;;4.82;1.00;;;;;;;5.09;78.77;96320.19;4442389;32;20057;-73
2020/12/27 07:49:00;;;;;;;7.22;0.93;;;;;;;5.04;79.35;96321.72;4441851;32;20059;-74
2020/12/27 07:51:26;;;;;;;5.82;0.90;;;;;;;4.81;80.72;96311.84;4444440;32;20072;-73
2020/12/27 07:53:54;;;;;;;3.33;0.70;;;;;;;4.64;81.73;96305.53;4442771;32;20103;-74
2020/12/27 07:56:22;;;;;;;4.97;1.12;;;;;;;4.64;82.00;96305.53;4442637;32;20104;-74
2020/12/27 08:04:07;;;;;;;16.05;4.15;;;;;;;4.82;80.79;96287.56;3986764;32;15022723;-74
2020/12/27 08:06:35;;;;;;;16.45;6.65;;;;;;;4.69;81.86;96279.69;4443680;32;20562;-74
2020/12/27 08:11:41;;;;;;;26.85;10.35;;;;;;;5.21;80.93;96300.16;3987024;32;15021935;-74
2020/12/27 08:14:11;;;;;;;27.20;11.48;;;;;;;5.21;80.93;96300.16;4437207;32;20022;-74
2020/12/27 08:16:40;;;;;;;20.00;8.27;;;;;;;4.84;81.68;96296.91;4441180;32;20094;-74
2020/12/27 08:19:15;;;;;;;15.52;6.78;;;;;;;4.79;82.46;96306.00;4436682;32;20060;-74
2020/12/27 08:21:42;;;;;;;;;;;;;;;4.77;83.08;96247.31;4432933;32;20528;-74
2020/12/27 08:24:10;;;;;;;5.78;2.35;;;;;;;4.67;82.75;96259.22;4439487;32;20273;-74
2020/12/27 08:26:38;;;;;;;4.37;2.28;;;;;;;4.55;83.14;96255.69;4440352;32;20136;-74
2020/12/27 08:29:14;;;;;;;6.53;2.30;;;;;;;4.50;83.63;96261.22;4439654;32;20179;-74
2020/12/27 08:31:41;;;;;;;8.23;3.40;;;;;;;4.50;83.35;96272.34;4440814;32;20350;-74
2020/12/27 08:36:49;;;;;;;13.80;5.72;;;;;;;4.49;83.29;96266.06;4003725;31;15017779;-72
2020/12/27 08:47:54;;;;;;;5.40;2.90;;;;;;;4.69;81.38;96251.13;3994566;31;15016125;-74
2020/12/27 08:50:24;;;;;;;10.00;3.30;;;;;;;4.69;81.38;96251.13;4447278;32;20172;-74
2020/12/27 08:52:55;;;;;;;6.72;2.47;;;;;;;4.24;82.30;96242.03;4448508;32;20409;-74
2020/12/27 08:55:25;;;;;;;9.13;2.62;;;;;;;4.27;82.53;96238.22;4450600;32;20033;-74
2020/12/27 08:57:52;;;;;;;9.88;3.75;;;;;;;4.23;81.84;96229.34;4446558;32;20064;-74
2020/12/27 09:00:19;;;;;;;11.12;5.62;;;;;;;4.30;81.67;96236.44;4447232;32;20116;-74
2020/12/27 09:02:55;;;;;;;15.65;6.85;;;;;;;4.32;81.90;96245.81;4448079;32;20040;-74
2020/12/27 09:05:25;;;;;;;16.05;7.50;;;;;;;4.40;81.78;96246.81;4446948;32;20030;-74
2020/12/27 09:07:52;;;;;;;17.20;8.05;;;;;;;4.44;81.14;96246.56;4446266;32;20116;-74
2020/12/27 09:15:35;;;;;;;15.90;7.95;;;;;;;5.17;79.47;96251.53;3988473;32;15026250;-74
2020/12/27 09:18:04;;;;;;;22.23;8.10;;;;;;;5.17;79.47;96251.53;4439191;32;20103;-74
2020/12/27 09:20:32;;;;;;;19.23;8.45;;;;;;;4.81;79.92;96242.25;4441673;32;20122;-74
2020/12/27 09:22:59;;;;;;;21.45;7.28;;;;;;;4.80;80.56;96237.19;4439448;32;20052;-74
2020/12/27 09:25:26;;;;;;;14.98;5.15;;;;;;;4.73;80.27;96224.56;4441773;32;20063;-74
2020/12/27 09:27:54;;;;;;;13.65;4.37;;;;;;;4.85;78.83;96245.50;4439852;32;20092;-74
2020/12/27 09:30:25;;;;;;;13.93;3.50;;;;;;;4.90;79.07;96255.12;4437590;32;20342;-74
2020/12/27 09:33:00;;;;;;;10.23;3.00;;;;;;;4.89;79.00;96253.63;4437449;32;20369;-74
2020/12/27 09:35:26;;;;;;;;;;;;;;;4.92;77.90;96247.81;4441730;32;20402;-74
2020/12/27 09:37:52;;;;;;;8.98;2.08;;;;;;;4.96;77.85;96262.22;4436417;32;20374;-74
2020/12/27 09:40:19;;;;;;;12.55;4.10;;;;;;;4.95;78.03;96241.22;4433506;32;20097;-74
2020/12/27 09:42:46;;;;;;;18.92;5.85;;;;;;;5.02;78.29;96242.69;4434708;32;20497;-74
2020/12/27 09:45:17;;;;;;;15.50;5.90;;;;;;;5.06;77.48;96246.75;4429713;32;20097;-74
2020/12/27 09:47:50;;;;;;;14.73;6.45;;;;;;;5.11;76.87;96250.78;4432143;32;20029;-74
2020/12/27 09:50:16;;;;;;;12.68;5.40;;;;;;;5.25;76.80;96239.34;4429515;32;20733;-74
2020/12/27 09:52:45;;;;;;;18.77;5.43;;;;;;;5.12;76.44;96239.12;4428122;32;20042;-74
2020/12/27 09:55:11;;;;;;;15.63;5.37;;;;;;;5.28;76.03;96238.31;4430581;32;20030;-74
2020/12/27 09:57:36;;;;;;;19.17;5.18;;;;;;;5.24;76.10;96228.72;4431353;32;20056;-74
2020/12/27 10:00:04;;;;;;;13.85;4.20;;;;;;;5.36;75.58;96250.47;4436007;32;20030;-74
2020/12/27 10:02:31;;;;;;;20.25;4.70;;;;;;;5.41;74.99;96260.84;4428289;32;20092;-74
2020/12/27 10:04:56;;;;;;;15.00;4.35;;;;;;;5.44;74.44;96256.28;4429585;32;20034;-74
2020/12/27 10:07:22;;;;;;;17.08;3.67;;;;;;;5.53;74.20;96255.97;4431920;32;20072;-74
2020/12/27 10:09:48;;;;;;;13.50;3.80;;;;;;;5.58;74.12;96247.59;4429806;32;20081;-74
2020/12/27 10:12:14;;;;;;;14.10;3.45;;;;;;;5.76;73.96;96260.19;4430298;32;20070;-74
2020/12/27 10:14:39;;;;;;;17.20;3.53;;;;;;;5.78;72.26;96244.47;4430972;32;20037;-74
2020/12/27 10:17:06;;;;;;;17.73;3.83;;;;;;;5.75;72.14;96251.06;4432536;32;20041;-74
2020/12/27 10:19:32;;;;;;;15.20;2.95;;;;;;;5.77;72.38;96265.25;4429077;32;20067;-74
2020/12/27 10:21:58;;;;;;;12.73;2.58;;;;;;;5.82;71.81;96258.16;4429257;32;20079;-74
2020/12/27 10:24:26;;;;;;;19.60;3.42;;;;;;;5.89;72.66;96258.37;4434514;32;20105;-74
2020/12/27 10:26:52;;;;;;;11.93;2.47;;;;;;;5.91;71.62;96244.69;4421811;32;20467;-74
2020/12/27 10:29:19;;;;;;;13.10;2.35;;;;;;;6.10;71.23;96253.16;4419201;32;20060;-74
2020/12/27 10:31:53;;;;;;;17.98;2.50;;;;;;;6.07;71.01;96266.13;4416265;32;20048;-74
2020/12/27 10:34:20;;;;;;;13.25;2.83;;;;;;;6.04;71.03;96263.59;4422947;32;20056;-74
2020/12/27 10:36:48;;;;;;;14.65;2.47;;;;;;;6.10;71.55;96267.13;4420349;32;20347;-74
2020/12/27 10:39:15;;;;;;;10.43;2.37;;;;;;;6.11;70.03;96265.87;4416749;32;20062;-74
2020/12/27 10:41:42;;;;;;;8.85;1.95;;;;;;;6.02;70.55;96283.66;4421440;32;20462;-74
2020/12/27 10:44:09;;;;;;;16.67;2.40;;;;;;;6.05;71.24;96271.47;4420560;32;20038;-74
2020/12/27 10:46:35;;;;;;;36.03;3.87;;;;;;;6.18;70.15;96282.06;4419894;32;20101;-74
2020/12/27 10:49:01;;;;;;;12.57;2.30;;;;;;;6.24;68.85;96273.63;4421399;32;20030;-74
2020/12/27 10:51:27;;;;;;;11.50;2.25;;;;;;;6.24;70.01;96282.00;4424411;32;20089;-74
2020/12/27 10:53:52;;;;;;;17.45;2.67;;;;;;;6.27;69.77;96287.31;4422066;32;20023;-74
2020/12/27 10:56:18;;;;;;;22.45;2.10;;;;;;;6.10;68.64;96298.59;4424182;32;20022;-74
2020/12/27 10:58:44;;;;;;;15.35;1.87;;;;;;;6.19;69.00;96293.97;4422573;32;20093;-74
2020/12/27 11:01:09;;;;;;;11.45;2.65;;;;;;;6.08;68.92;96292.75;4423176;32;20450;-74
2020/12/27 11:03:35;;;;;;;11.38;2.58;;;;;;;6.10;69.17;96295.78;4419089;32;20112;-75
2020/12/27 11:06:00;;;;;;;18.65;2.87;;;;;;;6.23;69.26;96297.25;4420171;32;20439;-74
2020/12/27 11:08:26;;;;;;;9.18;1.83;;;;;;;6.25;69.01;96309.41;4422802;32;20133;-74
2020/12/27 11:10:52;;;;;;;12.98;2.37;;;;;;;6.16;68.56;96292.97;4419943;32;20033;-74
2020/12/27 11:13:18;;;;;;;7.57;1.80;;;;;;;6.28;69.82;96291.63;4424464;32;20140;-74
2020/12/27 11:15:43;;;;;;;10.35;1.83;;;;;;;6.35;68.95;96284.75;4420755;32;20104;-74
2020/12/27 11:18:09;;;;;;;12.23;1.73;;;;;;;6.29;69.23;96286.81;4416671;32;20092;-74
2020/12/27 11:20:35;;;;;;;13.25;1.70;;;;;;;6.30;68.60;96285.53;4420960;32;20141;-74
2020/12/27 11:23:00;;;;;;;10.02;1.95;;;;;;;6.23;68.32;96280.50;4420166;32;20367;-74
2020/12/27 11:25:26;;;;;;;10.13;2.20;;;;;;;6.36;68.71;96295.41;4419097;32;20509;-74
2020/12/27 11:27:52;;;;;;;8.13;1.50;;;;;;;6.33;69.58;96281.72;4417985;32;20065;-74
2020/12/27 11:30:18;;;;;;;14.95;2.12;;;;;;;6.46;69.53;96285.41;4413075;32;20058;-74
2020/12/27 11:32:45;;;;;;;13.32;2.10;;;;;;;6.48;68.59;96294.03;4420100;32;20436;-74
2020/12/27 11:35:11;;;;;;;15.05;2.70;;;;;;;6.69;68.71;96286.03;4421383;32;20111;-74
2020/12/27 11:37:37;;;;;;;11.27;1.92;;;;;;;6.79;67.42;96303.97;4418104;32;20333;-74
2020/12/27 11:40:04;;;;;;;11.27;1.83;;;;;;;6.93;67.56;96289.59;4410836;32;20128;-74
2020/12/27 11:42:29;;;;;;;12.05;1.62;;;;;;;7.01;67.44;96289.81;4418799;32;20382;-74
2020/12/27 11:44:55;;;;;;;6.43;1.30;;;;;;;6.94;66.31;96274.37;4420137;32;21221;-74
2020/12/27 11:47:21;;;;;;;7.10;1.45;;;;;;;7.15;66.18;96275.44;4424116;32;20105;-75
2020/12/27 11:49:47;;;;;;;11.55;1.73;;;;;;;7.42;67.14;96268.81;4416176;32;20067;-74
2020/12/27 11:52:12;;;;;;;20.65;2.20;;;;;;;7.59;65.89;96268.63;4422281;32;20053;-74
2020/12/27 11:54:38;;;;;;;15.93;2.30;;;;;;;7.63;64.51;96264.25;4423754;32;20092;-74
2020/12/27 11:57:03;;;;;;;12.37;1.92;;;;;;;7.68;64.34;96263.44;4422058;32;20138;-74
2020/12/27 11:59:29;;;;;;;17.90;2.67;;;;;;;7.66;64.39;96259.63;4422811;32;20029;-74
2020/12/27 12:01:55;;;;;;;10.05;1.77;;;;;;;7.76;65.38;96263.56;4426214;32;20061;-74
2020/12/27 12:04:21;;;;;;;10.95;2.37;;;;;;;7.88;64.02;96251.72;4411940;32;20034;-74
2020/12/27 12:06:46;;;;;;;11.85;2.55;;;;;;;7.85;63.92;96247.19;4419069;32;20108;-74
2020/12/27 12:09:12;;;;;;;9.77;1.70;;;;;;;7.89;63.42;96247.62;4412827;32;20034;-74
2020/12/27 12:11:40;;;;;;;12.15;1.80;;;;;;;7.98;63.02;96236.06;4422186;32;20444;-72
2020/12/27 12:14:06;;;;;;;16.12;1.85;;;;;;;8.13;63.45;96225.16;4424546;32;20030;-72
2020/12/27 12:16:33;;;;;;;9.10;1.87;;;;;;;8.18;64.16;96229.94;4418789;32;20139;-72
2020/12/27 12:19:00;;;;;;;15.77;2.80;;;;;;;8.36;64.09;96219.25;4416146;32;20466;-72
2020/12/27 12:21:26;;;;;;;9.40;1.73;;;;;;;8.44;62.30;96218.09;4418372;32;20053;-72
2020/12/27 12:23:53;;;;;;;11.85;1.98;;;;;;;8.29;61.52;96217.09;4423703;32;20077;-72